Pagrindinis puslapis
METAR-TAF:

METAR-TAF

Oro uostai :

Altenburgas, Vokietija

platuma: 50-58N, ilguma: 012-30E, Aukštis: 195 m

Dabartinis oras

Ataskaita buvo paskelbta 17 minutes, ne 09:20 UTC
Vėjas 3 kt nuo kintamojo kryptimis
Temperatūra 13°C
Drėgmė 62%
Slėgis 1030 hPa
Matomumas 10 km arba daugiau
Išsisklaidę debesys ne aukštis 2600 ft

METAR: EDAC 200920Z VRB03KT 9999 SCT026 13/06 Q1030

Laikas: 11:37 (09:37 UTC)

Prognozė

Ataskaita buvo paskelbta 1 valandą ir 37 minutes, ne 08:00 UTC
Prognozė galioja nuo 20 metu 09 UTC su 20 metu 18 UTC
Vėjas 4 kt iš Vakarų/Šiaurės Vakarų
Matomumas 10 km arba daugiau
nėra debesų žemiau 1500 m ir nėra kamuolinių lietaus debesų

TAF: EDAC 200800Z 2009/2018 30004KT CAVOK

Orai ataskaitas ir orų prognozės (METAR, TAF).

turimą stotys yra geltonos ir raudonos taškus žemėlapyje.

Perkelti pele per norėdami pamatyti stoties vardą.

Tada spustelėkite, norėdami matyti oro stebėjimo ir prognozės.

Norėdami pakeisti žemėlapį: spustelėkite ant žalios mygtukų su juodo kryžiaus žemyn,; žalią mygtuką su brūkšneliu, jei norite nutolinti; arba žalių rodyklių gretimoms žemėlapius.


METAR-TAF: